Time;durP1;ratioP1;P1;durP2;ratioP2;P2;SDS_P1;SDS_P2;PMS_P1;PMS_P2;Temp;Humidity;BMP_temperature;BMP_pressure;BME280_temperature;BME280_humidity;BME280_pressure;Samples;Min_cycle;Max_cycle;Signal;HPM_P1;HPM_P2
2020/12/31 00:02:24;;;;;;;5.32;3.88;;;;;;;;;;4966189;28;20091;-72
2020/12/31 00:04:50;;;;;;;4.85;3.40;;;;;;;;;;4950378;29;20060;-72
2020/12/31 00:07:16;;;;;;;5.95;3.47;;;;;;;;;;4950247;29;20051;-72
2020/12/31 00:09:42;;;;;;;4.43;3.55;;;;;;;;;;4952380;29;20107;-72
2020/12/31 00:12:08;;;;;;;4.63;3.33;;;;;;;;;;4985620;28;20466;-71
2020/12/31 00:14:34;;;;;;;3.55;3.17;;;;;;;;;;4953341;29;20477;-71
2020/12/31 00:17:00;;;;;;;4.38;3.65;;;;;;;;;;4954517;29;20098;-71
2020/12/31 00:19:27;;;;;;;5.05;3.50;;;;;;;;;;4954488;29;20051;-71
2020/12/31 00:21:53;;;;;;;5.22;3.00;;;;;;;;;;4954307;28;20114;-71
2020/12/31 00:24:19;;;;;;;5.97;3.72;;;;;;;;;;4954562;29;20086;-71
2020/12/31 00:26:46;;;;;;;3.95;3.28;;;;;;;;;;4984942;28;20091;-71
2020/12/31 00:29:13;;;;;;;4.75;3.72;;;;;;;;;;4969170;28;20055;-71
2020/12/31 00:31:39;;;;;;;4.45;3.58;;;;;;;;;;4968001;28;20056;-71
2020/12/31 00:34:05;;;;;;;3.90;3.47;;;;;;;;;;4949801;29;20423;-71
2020/12/31 00:36:33;;;;;;;5.00;2.95;;;;;;;;;;4965450;28;20091;-71
2020/12/31 00:39:00;;;;;;;4.90;3.50;;;;;;;;;;4974261;28;20102;-71
2020/12/31 00:41:26;;;;;;;4.57;3.65;;;;;;;;;;4984217;28;20495;-71
2020/12/31 00:43:52;;;;;;;4.05;3.45;;;;;;;;;;4968870;28;20074;-71
2020/12/31 00:46:18;;;;;;;4.10;3.25;;;;;;;;;;4968759;28;20086;-71
2020/12/31 00:48:44;;;;;;;4.53;3.33;;;;;;;;;;4946839;29;20082;-71
2020/12/31 00:51:11;;;;;;;4.40;3.40;;;;;;;;;;4949405;28;20052;-72
2020/12/31 00:53:37;;;;;;;4.95;3.47;;;;;;;;;;4949476;29;20416;-72
2020/12/31 00:56:03;;;;;;;4.13;3.25;;;;;;;;;;4934590;29;20048;-72
2020/12/31 00:58:29;;;;;;;3.45;3.15;;;;;;;;;;4969915;28;20099;-72
2020/12/31 01:00:55;;;;;;;3.63;2.95;;;;;;;;;;4968795;28;20082;-72
2020/12/31 01:03:21;;;;;;;6.13;3.50;;;;;;;;;;4984757;28;20051;-72
2020/12/31 01:05:47;;;;;;;5.05;3.10;;;;;;;;;;4953764;29;20114;-72
2020/12/31 01:08:14;;;;;;;4.22;3.30;;;;;;;;;;4951646;29;20059;-72
2020/12/31 01:10:40;;;;;;;6.63;3.63;;;;;;;;;;4934386;29;20130;-72
2020/12/31 01:13:06;;;;;;;4.60;3.53;;;;;;;;;;4934562;29;20048;-72
2020/12/31 01:15:32;;;;;;;3.97;3.40;;;;;;;;;;4949018;29;20052;-71
2020/12/31 01:17:59;;;;;;;4.60;3.42;;;;;;;;;;4934610;29;20083;-71
2020/12/31 01:20:25;;;;;;;3.95;3.30;;;;;;;;;;4984344;28;20075;-72
2020/12/31 01:22:54;;;;;;;3.83;3.30;;;;;;;;;;4968344;28;20464;-71
2020/12/31 01:25:20;;;;;;;3.63;3.03;;;;;;;;;;4984379;28;20108;-72
2020/12/31 01:27:46;;;;;;;3.28;2.95;;;;;;;;;;4984385;28;20051;-72
2020/12/31 01:30:12;;;;;;;5.45;3.75;;;;;;;;;;4968569;28;20055;-71
2020/12/31 01:32:38;;;;;;;6.85;3.35;;;;;;;;;;4967941;28;20106;-71
2020/12/31 01:35:05;;;;;;;4.93;3.63;;;;;;;;;;4968240;28;20562;-71
2020/12/31 01:37:31;;;;;;;3.20;2.90;;;;;;;;;;4984174;28;20063;-72
2020/12/31 01:39:57;;;;;;;5.63;3.28;;;;;;;;;;4952959;28;20079;-72
2020/12/31 01:42:23;;;;;;;4.40;3.20;;;;;;;;;;4949105;28;20048;-72
2020/12/31 01:44:49;;;;;;;4.90;3.00;;;;;;;;;;4965096;28;20244;-72
2020/12/31 01:47:16;;;;;;;3.80;3.10;;;;;;;;;;4955617;28;20126;-71
2020/12/31 01:49:42;;;;;;;4.53;3.22;;;;;;;;;;4984324;28;20118;-71
2020/12/31 01:52:09;;;;;;;4.20;3.00;;;;;;;;;;4955750;28;20462;-71
2020/12/31 01:54:35;;;;;;;4.45;3.17;;;;;;;;;;4971912;28;20470;-71
2020/12/31 01:57:01;;;;;;;3.47;3.10;;;;;;;;;;4971904;28;20047;-71
2020/12/31 01:59:27;;;;;;;5.82;3.47;;;;;;;;;;4987941;28;20122;-71
2020/12/31 02:01:54;;;;;;;4.15;2.95;;;;;;;;;;4987999;28;20470;-71
2020/12/31 02:04:20;;;;;;;5.38;3.70;;;;;;;;;;4971948;28;20110;-71
2020/12/31 02:06:47;;;;;;;4.82;2.78;;;;;;;;;;4957014;28;20106;-71
2020/12/31 02:09:13;;;;;;;6.65;3.85;;;;;;;;;;4968520;28;20107;-71
2020/12/31 02:11:40;;;;;;;3.50;3.05;;;;;;;;;;4968282;28;20051;-71
2020/12/31 02:14:06;;;;;;;4.85;3.83;;;;;;;;;;4968178;28;20044;-71
2020/12/31 02:16:37;;;;;;;4.30;3.63;;;;;;;;;;4962453;28;20055;-71
2020/12/31 02:19:15;;;;;;;7.13;4.25;;;;;;;;;;4987707;28;20051;-72
2020/12/31 02:21:51;;;;;;;4.50;3.05;;;;;;;;;;4987202;28;20479;-72
2020/12/31 02:24:18;;;;;;;5.00;3.70;;;;;;;;;;4987749;28;20396;-72
2020/12/31 02:26:48;;;;;;;3.88;3.03;;;;;;;;;;4959584;28;20515;-72
2020/12/31 02:29:16;;;;;;;4.07;3.30;;;;;;;;;;4967988;28;20103;-71
2020/12/31 02:31:43;;;;;;;4.47;3.30;;;;;;;;;;4951808;28;20107;-71
2020/12/31 02:34:09;;;;;;;4.30;3.58;;;;;;;;;;4951962;29;20048;-72
2020/12/31 02:36:37;;;;;;;4.55;3.22;;;;;;;;;;4968095;28;20060;-72
2020/12/31 02:39:11;;;;;;;4.55;3.00;;;;;;;;;;4980929;28;20047;-72
2020/12/31 02:41:37;;;;;;;4.35;3.33;;;;;;;;;;4986335;28;20069;-72
2020/12/31 02:44:04;;;;;;;3.78;3.17;;;;;;;;;;4971201;28;20051;-72
2020/12/31 02:46:31;;;;;;;8.10;3.33;;;;;;;;;;4954668;29;20051;-72
2020/12/31 02:48:57;;;;;;;5.82;3.53;;;;;;;;;;4971206;28;20101;-72
2020/12/31 02:51:23;;;;;;;4.90;3.55;;;;;;;;;;4971037;28;20055;-72
2020/12/31 02:53:49;;;;;;;5.13;3.83;;;;;;;;;;4970890;28;20055;-72
2020/12/31 02:56:20;;;;;;;4.25;3.22;;;;;;;;;;4967191;28;20115;-72
2020/12/31 02:58:47;;;;;;;5.07;3.33;;;;;;;;;;4967024;28;20118;-72
2020/12/31 03:01:14;;;;;;;5.35;3.35;;;;;;;;;;4951530;28;20542;-72
2020/12/31 03:03:40;;;;;;;3.80;3.22;;;;;;;;;;4966563;28;20048;-72
2020/12/31 03:06:07;;;;;;;6.68;3.72;;;;;;;;;;4967132;28;20087;-72
2020/12/31 03:08:34;;;;;;;4.55;3.17;;;;;;;;;;4951450;29;20051;-72
2020/12/31 03:11:00;;;;;;;4.68;3.63;;;;;;;;;;4951435;28;20060;-72
2020/12/31 03:13:27;;;;;;;4.47;3.70;;;;;;;;;;4951264;29;20047;-72
2020/12/31 03:15:54;;;;;;;4.30;3.50;;;;;;;;;;4966946;28;20567;-71
2020/12/31 03:18:20;;;;;;;6.10;4.18;;;;;;;;;;4951255;29;20083;-71
2020/12/31 03:20:49;;;;;;;5.78;3.45;;;;;;;;;;4967423;28;20111;-71
2020/12/31 03:23:16;;;;;;;4.45;3.55;;;;;;;;;;4951234;28;20079;-71
2020/12/31 03:25:43;;;;;;;6.68;3.63;;;;;;;;;;4950786;29;20475;-71
2020/12/31 03:28:10;;;;;;;4.70;3.45;;;;;;;;;;4967109;28;20052;-71
2020/12/31 03:30:36;;;;;;;4.30;3.75;;;;;;;;;;4966858;28;20205;-71
2020/12/31 03:33:03;;;;;;;6.05;3.53;;;;;;;;;;4935082;29;20052;-71
2020/12/31 03:35:29;;;;;;;8.25;3.80;;;;;;;;;;4934758;29;20471;-71
2020/12/31 03:37:55;;;;;;;4.97;4.22;;;;;;;;;;4967099;28;20047;-71
2020/12/31 03:40:22;;;;;;;5.32;3.90;;;;;;;;;;4966563;28;20466;-71
2020/12/31 03:42:48;;;;;;;5.55;3.95;;;;;;;;;;4955197;28;20461;-71
2020/12/31 03:45:14;;;;;;;5.57;3.80;;;;;;;;;;4986076;28;20676;-71
2020/12/31 03:47:40;;;;;;;5.10;3.63;;;;;;;;;;4948288;28;20048;-72
2020/12/31 03:50:06;;;;;;;4.55;4.05;;;;;;;;;;4966725;28;20056;-72
2020/12/31 03:52:33;;;;;;;6.55;3.80;;;;;;;;;;4950664;28;20078;-72
2020/12/31 03:54:59;;;;;;;5.32;3.70;;;;;;;;;;4966540;28;20099;-72
2020/12/31 03:57:25;;;;;;;5.78;4.15;;;;;;;;;;4967950;28;20051;-72
2020/12/31 03:59:51;;;;;;;5.53;4.30;;;;;;;;;;4954972;29;20463;-72
2020/12/31 04:02:17;;;;;;;6.18;3.60;;;;;;;;;;4985872;28;20055;-72
2020/12/31 04:04:44;;;;;;;5.80;4.10;;;;;;;;;;4985753;28;20055;-72
2020/12/31 04:07:10;;;;;;;4.95;3.60;;;;;;;;;;4954695;28;20090;-72
2020/12/31 04:09:36;;;;;;;5.40;3.58;;;;;;;;;;4946610;29;20130;-72
2020/12/31 04:12:02;;;;;;;4.03;3.28;;;;;;;;;;4966251;28;20051;-72
2020/12/31 04:14:28;;;;;;;4.60;3.67;;;;;;;;;;4966084;28;20435;-72
2020/12/31 04:16:54;;;;;;;6.22;4.90;;;;;;;;;;4935238;29;20051;-72
2020/12/31 04:19:20;;;;;;;6.18;4.18;;;;;;;;;;4949909;29;20562;-72
2020/12/31 04:21:47;;;;;;;6.93;4.13;;;;;;;;;;4984680;23;20126;-68
2020/12/31 04:24:13;;;;;;;5.22;3.35;;;;;;;;;;4991346;28;20464;-68
2020/12/31 04:26:39;;;;;;;4.30;3.40;;;;;;;;;;4992834;28;20121;-68
2020/12/31 04:29:05;;;;;;;5.10;3.92;;;;;;;;;;4993008;28;20517;-68
2020/12/31 04:31:31;;;;;;;4.80;3.67;;;;;;;;;;4973690;28;20505;-68
2020/12/31 04:33:57;;;;;;;5.68;3.67;;;;;;;;;;4973321;28;20520;-68
2020/12/31 04:36:23;;;;;;;6.00;4.18;;;;;;;;;;4973326;28;20062;-68
2020/12/31 04:38:49;;;;;;;5.70;3.97;;;;;;;;;;4973463;28;20102;-68
2020/12/31 04:41:15;;;;;;;6.40;3.47;;;;;;;;;;4973488;28;20050;-68
2020/12/31 04:43:41;;;;;;;5.53;3.47;;;;;;;;;;4973295;28;20141;-68
2020/12/31 04:46:09;;;;;;;4.70;3.85;;;;;;;;;;4973189;28;20050;-68
2020/12/31 04:48:40;;;;;;;4.50;3.55;;;;;;;;;;4972053;28;20050;-68
2020/12/31 04:51:08;;;;;;;4.97;3.67;;;;;;;;;;4973311;28;20090;-68
2020/12/31 04:53:34;;;;;;;6.03;3.28;;;;;;;;;;4971910;28;20082;-69
2020/12/31 04:56:01;;;;;;;5.55;3.75;;;;;;;;;;4973066;28;20126;-69
2020/12/31 04:58:27;;;;;;;9.35;3.92;;;;;;;;;;4980160;28;20073;-69
2020/12/31 05:00:53;;;;;;;4.80;3.58;;;;;;;;;;4981876;28;20086;-69
2020/12/31 05:03:19;;;;;;;4.38;3.40;;;;;;;;;;4973056;28;20101;-69
2020/12/31 05:05:45;;;;;;;4.03;3.10;;;;;;;;;;4972840;28;20082;-69
2020/12/31 05:08:11;;;;;;;3.47;2.97;;;;;;;;;;4971766;28;20050;-69
2020/12/31 05:10:38;;;;;;;5.10;3.28;;;;;;;;;;4955911;28;20050;-69
2020/12/31 05:13:06;;;;;;;5.85;4.13;;;;;;;;;;4971757;28;20509;-69
2020/12/31 05:15:42;;;;;;;4.88;3.60;;;;;;;;;;4972814;28;20198;-69
2020/12/31 05:18:27;;;;;;;5.57;3.63;;;;;;;;;;4972960;28;20046;-69
2020/12/31 05:20:55;;;;;;;5.55;4.07;;;;;;;;;;4972977;28;20113;-69
2020/12/31 05:23:23;;;;;;;4.15;3.15;;;;;;;;;;4985906;28;20085;-69
2020/12/31 05:25:49;;;;;;;5.55;2.97;;;;;;;;;;4992248;28;20057;-69
2020/12/31 05:28:33;;;;;;;5.28;2.95;;;;;;;;;;4996340;28;20046;-69
2020/12/31 05:31:18;;;;;;;3.30;2.55;;;;;;;;;;4996371;28;20073;-69
2020/12/31 05:33:44;;;;;;;3.28;2.80;;;;;;;;;;4996115;28;20078;-69
2020/12/31 05:36:16;;;;;;;4.88;2.58;;;;;;;;;;4996002;28;20457;-69
2020/12/31 05:38:57;;;;;;;4.45;3.30;;;;;;;;;;4996466;28;20374;-69
2020/12/31 05:41:24;;;;;;;4.18;3.75;;;;;;;;;;4996109;28;20054;-69
2020/12/31 05:43:56;;;;;;;4.35;3.40;;;;;;;;;;4996012;28;20050;-69
2020/12/31 05:46:22;;;;;;;4.90;3.22;;;;;;;;;;4996088;28;20097;-69
2020/12/31 05:49:14;;;;;;;4.75;2.88;;;;;;;;;;4995967;28;20077;-69
2020/12/31 05:51:41;;;;;;;5.82;3.88;;;;;;;;;;4993183;28;20449;-69
2020/12/31 05:54:11;;;;;;;4.65;3.13;;;;;;;;;;4995757;28;20046;-69
2020/12/31 05:56:39;;;;;;;3.33;2.88;;;;;;;;;;4995830;28;20054;-69
2020/12/31 05:59:07;;;;;;;3.70;3.08;;;;;;;;;;4995702;28;20108;-69
2020/12/31 06:01:36;;;;;;;6.00;3.63;;;;;;;;;;4981525;28;20054;-69
2020/12/31 06:04:19;;;;;;;8.45;3.53;;;;;;;;;;4983134;28;20061;-69
2020/12/31 06:06:50;;;;;;;6.00;3.30;;;;;;;;;;4976072;28;20472;-69
2020/12/31 06:09:42;;;;;;;5.00;2.78;;;;;;;;;;4983904;28;20576;-69
2020/12/31 06:12:10;;;;;;;5.05;2.97;;;;;;;;;;4982800;28;20113;-69
2020/12/31 06:14:39;;;;;;;6.55;3.53;;;;;;;;;;4983281;28;20513;-69
2020/12/31 06:17:06;;;;;;;7.07;3.03;;;;;;;;;;4985380;28;20456;-69
2020/12/31 06:19:32;;;;;;;7.10;3.58;;;;;;;;;;4989133;28;20050;-69
2020/12/31 06:22:08;;;;;;;3.95;3.13;;;;;;;;;;4995576;28;20073;-69
2020/12/31 06:24:35;;;;;;;3.50;3.10;;;;;;;;;;4995372;28;20193;-69
2020/12/31 06:27:14;;;;;;;4.05;3.00;;;;;;;;;;4995315;28;20516;-69
2020/12/31 06:29:40;;;;;;;4.28;3.05;;;;;;;;;;4995137;28;20109;-69
2020/12/31 06:32:31;;;;;;;3.42;2.58;;;;;;;;;;4993894;28;20054;-69
2020/12/31 06:35:10;;;;;;;4.50;3.40;;;;;;;;;;4995299;28;20050;-69
2020/12/31 06:37:37;;;;;;;7.47;3.80;;;;;;;;;;4994910;28;20086;-69
2020/12/31 06:40:24;;;;;;;4.85;3.80;;;;;;;;;;4987826;28;20082;-69
2020/12/31 06:43:09;;;;;;;4.85;3.08;;;;;;;;;;4984492;28;20458;-69
2020/12/31 06:45:44;;;;;;;6.00;3.63;;;;;;;;;;4994754;28;20045;-69
2020/12/31 06:48:25;;;;;;;5.43;3.95;;;;;;;;;;4995371;28;20086;-69
2020/12/31 06:51:02;;;;;;;6.13;3.67;;;;;;;;;;4989767;28;20462;-69
2020/12/31 06:53:35;;;;;;;5.35;3.40;;;;;;;;;;4975274;28;20093;-69
2020/12/31 06:56:11;;;;;;;7.93;4.55;;;;;;;;;;4975154;28;20093;-69
2020/12/31 06:58:38;;;;;;;3.63;2.83;;;;;;;;;;4975297;28;20050;-69
2020/12/31 07:01:27;;;;;;;4.72;3.80;;;;;;;;;;4975200;28;20092;-69
2020/12/31 07:03:53;;;;;;;4.95;3.70;;;;;;;;;;4975185;28;20090;-69
2020/12/31 07:06:25;;;;;;;4.50;3.33;;;;;;;;;;4974930;28;20097;-69
2020/12/31 07:08:52;;;;;;;6.35;3.42;;;;;;;;;;4975216;28;20051;-69
2020/12/31 07:11:34;;;;;;;5.15;3.75;;;;;;;;;;4975318;28;20051;-69
2020/12/31 07:14:18;;;;;;;5.90;3.50;;;;;;;;;;4989743;28;20054;-69
2020/12/31 07:16:55;;;;;;;5.57;4.13;;;;;;;;;;4994305;28;20550;-69
2020/12/31 07:19:22;;;;;;;10.15;4.28;;;;;;;;;;4994410;28;20493;-69
2020/12/31 07:21:51;;;;;;;7.22;4.78;;;;;;;;;;4994058;28;20089;-69
2020/12/31 07:24:24;;;;;;;11.75;5.53;;;;;;;;;;4990614;28;20097;-69
2020/12/31 07:26:55;;;;;;;6.68;4.28;;;;;;;;;;4974830;28;20054;-69
2020/12/31 07:29:32;;;;;;;5.65;4.18;;;;;;;;;;4974811;28;20109;-69
2020/12/31 07:32:02;;;;;;;7.95;4.88;;;;;;;;;;4974725;28;20109;-69
2020/12/31 07:34:30;;;;;;;5.32;4.40;;;;;;;;;;4974460;28;20517;-69
2020/12/31 07:37:07;;;;;;;6.40;4.07;;;;;;;;;;4991305;28;20061;-69
2020/12/31 07:39:34;;;;;;;7.65;4.43;;;;;;;;;;4993956;28;20054;-69
2020/12/31 07:42:14;;;;;;;6.03;3.60;;;;;;;;;;4993776;28;20133;-69
2020/12/31 07:44:59;;;;;;;8.57;4.55;;;;;;;;;;4993752;28;20507;-69
2020/12/31 07:47:25;;;;;;;8.52;4.82;;;;;;;;;;4992503;28;20054;-69
2020/12/31 07:49:52;;;;;;;4.93;3.90;;;;;;;;;;4993306;28;20077;-69
2020/12/31 07:52:19;;;;;;;7.93;4.82;;;;;;;;;;4993545;28;20085;-68
2020/12/31 07:54:45;;;;;;;9.63;4.97;;;;;;;;;;4993619;28;20046;-68
2020/12/31 07:57:13;;;;;;;6.38;4.72;;;;;;;;;;4993465;28;20090;-68
2020/12/31 07:59:46;;;;;;;6.90;4.63;;;;;;;;;;4993608;28;20083;-68
2020/12/31 08:02:15;;;;;;;7.78;5.15;;;;;;;;;;4993729;28;20065;-68
2020/12/31 08:04:42;;;;;;;7.72;4.50;;;;;;;;;;4993485;28;20104;-68
2020/12/31 08:07:17;;;;;;;6.53;4.68;;;;;;;;;;4993099;28;20050;-68
2020/12/31 08:09:47;;;;;;;6.50;4.80;;;;;;;;;;4989303;28;20055;-68
2020/12/31 08:12:13;;;;;;;5.47;4.32;;;;;;;;;;4972871;28;20055;-68
2020/12/31 08:14:40;;;;;;;5.63;4.07;;;;;;;;;;4973743;28;20556;-68
2020/12/31 08:17:06;;;;;;;6.85;4.75;;;;;;;;;;4971346;28;20136;-68
2020/12/31 08:19:32;;;;;;;6.90;4.70;;;;;;;;;;4971812;28;20105;-68
2020/12/31 08:22:03;;;;;;;5.35;4.25;;;;;;;;;;4977481;28;20226;-68
2020/12/31 08:24:31;;;;;;;5.68;4.43;;;;;;;;;;4989857;28;20046;-68
2020/12/31 08:26:58;;;;;;;6.90;4.70;;;;;;;;;;4989802;28;20082;-68
2020/12/31 08:29:27;;;;;;;5.05;4.05;;;;;;;;;;4989382;28;20097;-68
2020/12/31 08:31:54;;;;;;;7.85;5.00;;;;;;;;;;4990990;28;20055;-68
2020/12/31 08:34:25;;;;;;;7.40;4.32;;;;;;;;;;4990912;28;20089;-68
2020/12/31 08:36:51;;;;;;;9.13;5.10;;;;;;;;;;4989523;28;20086;-68
2020/12/31 08:39:17;;;;;;;5.20;4.35;;;;;;;;;;4973601;28;20050;-68
2020/12/31 08:41:56;;;;;;;5.65;4.05;;;;;;;;;;4972088;28;20059;-68
2020/12/31 08:44:24;;;;;;;5.45;4.40;;;;;;;;;;4969949;28;20506;-68
2020/12/31 08:46:50;;;;;;;7.97;4.70;;;;;;;;;;4970113;28;20070;-68
2020/12/31 08:49:25;;;;;;;7.65;4.57;;;;;;;;;;4971313;28;20047;-68
2020/12/31 08:51:52;;;;;;;7.03;5.60;;;;;;;;;;4971169;28;20106;-68
2020/12/31 08:54:18;;;;;;;11.55;8.23;;;;;;;;;;4986071;28;20360;-68
2020/12/31 08:56:44;;;;;;;8.38;6.45;;;;;;;;;;4982930;28;20051;-68
2020/12/31 08:59:14;;;;;;;8.15;5.70;;;;;;;;;;4985710;28;20082;-68
2020/12/31 09:01:42;;;;;;;6.82;5.10;;;;;;;;;;4987823;28;20058;-68
2020/12/31 09:04:09;;;;;;;7.60;4.65;;;;;;;;;;4971230;28;20051;-68
2020/12/31 09:06:44;;;;;;;8.52;5.18;;;;;;;;;;4970835;28;20058;-68
2020/12/31 09:09:21;;;;;;;8.35;5.03;;;;;;;;;;4970925;28;20054;-68
2020/12/31 09:11:58;;;;;;;9.23;5.75;;;;;;;;;;4970964;28;20109;-68
2020/12/31 09:14:25;;;;;;;8.63;5.55;;;;;;;;;;4971712;28;20494;-68
2020/12/31 09:16:51;;;;;;;8.27;5.90;;;;;;;;;;4972980;28;20418;-68
2020/12/31 09:19:17;;;;;;;8.38;5.47;;;;;;;;;;4973923;28;20473;-68
2020/12/31 09:21:44;;;;;;;6.75;4.85;;;;;;;;;;4991927;28;20132;-69
2020/12/31 09:24:14;;;;;;;5.63;4.13;;;;;;;;;;4992583;28;20469;-76
2020/12/31 09:26:40;;;;;;;7.30;5.55;;;;;;;;;;4992185;28;20078;-72
2020/12/31 09:29:09;;;;;;;5.85;4.25;;;;;;;;;;4992333;28;20081;-69
2020/12/31 09:31:36;;;;;;;6.82;5.07;;;;;;;;;;4987617;28;20051;-68
2020/12/31 09:34:02;;;;;;;8.77;4.97;;;;;;;;;;4977653;28;20046;-69
2020/12/31 09:36:28;;;;;;;5.85;5.07;;;;;;;;;;4986938;28;20042;-68
2020/12/31 09:38:54;;;;;;;7.13;4.95;;;;;;;;;;4976605;28;20050;-70
2020/12/31 09:41:21;;;;;;;7.50;5.60;;;;;;;;;;4978981;28;20130;-70
2020/12/31 09:43:50;;;;;;;7.72;5.20;;;;;;;;;;4967959;28;20121;-69
2020/12/31 09:46:17;;;;;;;7.93;5.57;;;;;;;;;;4986790;28;20049;-71
2020/12/31 09:48:44;;;;;;;7.13;5.40;;;;;;;;;;4978766;28;20086;-70
2020/12/31 09:51:10;;;;;;;7.68;4.90;;;;;;;;;;4985407;28;20154;-73
2020/12/31 09:53:36;;;;;;;8.57;5.45;;;;;;;;;;4977713;28;20133;-70
2020/12/31 09:56:02;;;;;;;8.18;5.22;;;;;;;;;;4979260;28;20054;-70
2020/12/31 09:58:28;;;;;;;7.45;5.70;;;;;;;;;;4978278;28;20054;-77
2020/12/31 10:00:55;;;;;;;6.15;4.72;;;;;;;;;;4979271;28;20495;-74
2020/12/31 10:03:21;;;;;;;8.32;5.57;;;;;;;;;;4977372;28;20046;-70
2020/12/31 10:05:47;;;;;;;8.95;6.38;;;;;;;;;;4975949;28;20205;-73
2020/12/31 10:08:13;;;;;;;7.22;5.72;;;;;;;;;;4976633;28;20116;-70
2020/12/31 10:10:39;;;;;;;8.38;6.40;;;;;;;;;;4979451;28;20047;-72
2020/12/31 10:13:06;;;;;;;8.75;5.88;;;;;;;;;;4981286;28;20054;-71
2020/12/31 10:15:32;;;;;;;8.45;5.78;;;;;;;;;;4987900;28;20468;-72
2020/12/31 10:17:58;;;;;;;8.43;5.95;;;;;;;;;;4983877;28;20125;-73
2020/12/31 10:20:25;;;;;;;8.73;6.65;;;;;;;;;;4986575;28;20112;-73
2020/12/31 10:22:51;;;;;;;10.18;6.50;;;;;;;;;;4989691;28;20104;-77
2020/12/31 10:25:17;;;;;;;7.75;5.20;;;;;;;;;;4987982;28;20055;-74
2020/12/31 10:27:43;;;;;;;8.23;6.13;;;;;;;;;;4989213;28;20050;-71
2020/12/31 10:30:09;;;;;;;10.57;6.20;;;;;;;;;;4988694;28;20054;-71
2020/12/31 10:32:35;;;;;;;9.18;6.40;;;;;;;;;;5004345;28;20421;-73
2020/12/31 10:35:01;;;;;;;8.93;6.15;;;;;;;;;;4988372;28;20081;-73
2020/12/31 10:37:27;;;;;;;8.45;5.95;;;;;;;;;;4988741;28;20050;-70
2020/12/31 10:39:53;;;;;;;9.43;6.32;;;;;;;;;;4988878;28;20054;-73
2020/12/31 10:42:20;;;;;;;7.60;5.72;;;;;;;;;;4989411;28;20046;-73
2020/12/31 10:44:46;;;;;;;7.55;5.65;;;;;;;;;;4993845;28;20038;-72
2020/12/31 10:47:12;;;;;;;8.98;6.30;;;;;;;;;;4990301;28;20106;-72
2020/12/31 10:49:38;;;;;;;8.65;6.00;;;;;;;;;;4986587;28;20050;-69
2020/12/31 10:52:04;;;;;;;8.00;5.57;;;;;;;;;;4987490;28;20050;-70
2020/12/31 10:54:30;;;;;;;6.60;5.25;;;;;;;;;;4987518;28;20042;-69
2020/12/31 10:56:57;;;;;;;7.68;5.53;;;;;;;;;;4986609;28;20140;-73
2020/12/31 10:59:23;;;;;;;6.35;4.97;;;;;;;;;;4985432;28;20105;-73
2020/12/31 11:01:53;;;;;;;6.18;4.88;;;;;;;;;;4988174;28;20061;-75
2020/12/31 11:04:20;;;;;;;7.93;4.90;;;;;;;;;;4988574;28;20054;-74
2020/12/31 11:06:46;;;;;;;7.93;5.15;;;;;;;;;;4984226;28;20496;-73
2020/12/31 11:09:12;;;;;;;7.65;5.55;;;;;;;;;;4986065;28;20085;-69
2020/12/31 11:11:40;;;;;;;8.30;5.90;;;;;;;;;;4986940;28;20597;-69
2020/12/31 11:14:06;;;;;;;6.40;4.80;;;;;;;;;;4989659;28;20055;-72
2020/12/31 11:16:33;;;;;;;7.18;4.75;;;;;;;;;;4985161;28;20043;-69
2020/12/31 11:19:01;;;;;;;8.27;5.93;;;;;;;;;;4987577;28;20138;-74
2020/12/31 11:21:27;;;;;;;8.82;5.15;;;;;;;;;;4987106;28;20101;-72
2020/12/31 11:23:54;;;;;;;7.10;5.30;;;;;;;;;;4983928;28;20551;-73
2020/12/31 11:26:21;;;;;;;7.15;4.97;;;;;;;;;;4985897;28;20053;-74
2020/12/31 11:28:48;;;;;;;6.95;5.25;;;;;;;;;;4985929;28;20047;-71
2020/12/31 11:31:14;;;;;;;8.35;5.70;;;;;;;;;;4986546;28;20105;-72
2020/12/31 11:33:46;;;;;;;6.38;5.03;;;;;;;;;;4985447;28;20046;-78
2020/12/31 11:36:13;;;;;;;6.60;5.30;;;;;;;;;;4986241;28;20624;-72
2020/12/31 11:38:39;;;;;;;6.95;5.05;;;;;;;;;;4984671;28;20097;-71
2020/12/31 11:41:09;;;;;;;7.30;5.05;;;;;;;;;;5000947;28;20062;-73
2020/12/31 11:43:35;;;;;;;8.68;5.72;;;;;;;;;;4996858;28;20047;-75
2020/12/31 11:46:04;;;;;;;6.38;5.13;;;;;;;;;;4994118;28;20050;-72
2020/12/31 11:48:30;;;;;;;6.95;5.47;;;;;;;;;;5000495;28;20046;-71
2020/12/31 11:50:56;;;;;;;7.45;5.07;;;;;;;;;;4985893;28;20081;-71
2020/12/31 11:53:22;;;;;;;6.78;4.75;;;;;;;;;;4986640;28;20101;-71
2020/12/31 11:55:49;;;;;;;7.45;4.75;;;;;;;;;;4987074;28;20081;-72
2020/12/31 11:58:15;;;;;;;7.13;5.00;;;;;;;;;;4986997;28;20109;-72
2020/12/31 12:00:42;;;;;;;6.90;4.85;;;;;;;;;;4988626;28;20105;-72
2020/12/31 12:03:09;;;;;;;6.78;5.22;;;;;;;;;;4996918;28;20502;-72
2020/12/31 12:05:35;;;;;;;5.45;4.60;;;;;;;;;;4986563;28;20171;-72
2020/12/31 12:08:01;;;;;;;6.55;4.68;;;;;;;;;;4987476;28;20129;-74
2020/12/31 12:10:28;;;;;;;5.80;4.60;;;;;;;;;;5003409;28;20054;-71
2020/12/31 12:12:54;;;;;;;7.20;4.60;;;;;;;;;;4987679;28;20081;-72
2020/12/31 12:15:21;;;;;;;7.43;5.20;;;;;;;;;;4987032;28;20489;-73
2020/12/31 12:17:49;;;;;;;7.38;5.18;;;;;;;;;;4986725;28;20560;-71
2020/12/31 12:20:15;;;;;;;6.35;4.60;;;;;;;;;;4993973;28;20112;-71
2020/12/31 12:22:42;;;;;;;6.20;4.82;;;;;;;;;;5004115;28;20096;-73
2020/12/31 12:25:08;;;;;;;5.00;3.97;;;;;;;;;;5010917;28;20038;-72
2020/12/31 12:27:35;;;;;;;5.90;3.97;;;;;;;;;;5005867;28;20069;-72
2020/12/31 12:30:05;;;;;;;6.57;4.13;;;;;;;;;;4993113;28;20137;-72
2020/12/31 12:32:31;;;;;;;4.55;4.07;;;;;;;;;;4992296;28;20096;-71
2020/12/31 12:34:57;;;;;;;4.15;3.72;;;;;;;;;;4993202;28;20047;-71
2020/12/31 12:37:24;;;;;;;7.28;4.90;;;;;;;;;;4976882;28;20545;-72
2020/12/31 12:39:50;;;;;;;6.38;4.95;;;;;;;;;;4973506;28;20054;-72
2020/12/31 12:42:16;;;;;;;5.95;4.70;;;;;;;;;;4973545;28;20255;-73
2020/12/31 12:44:42;;;;;;;6.22;3.88;;;;;;;;;;4973364;28;20042;-70
2020/12/31 12:47:08;;;;;;;6.97;4.97;;;;;;;;;;4985292;28;20099;-71
2020/12/31 12:49:34;;;;;;;8.25;4.60;;;;;;;;;;4993138;28;20050;-72
2020/12/31 12:52:03;;;;;;;5.95;4.47;;;;;;;;;;4992702;28;20082;-74
2020/12/31 12:54:29;;;;;;;7.65;5.18;;;;;;;;;;4962095;28;20093;-72
2020/12/31 12:56:56;;;;;;;6.93;4.65;;;;;;;;;;4983498;28;20137;-72
2020/12/31 12:59:22;;;;;;;6.75;4.95;;;;;;;;;;4975474;28;20105;-73
2020/12/31 13:01:48;;;;;;;6.60;4.32;;;;;;;;;;4986146;28;20556;-70
2020/12/31 13:04:14;;;;;;;7.68;4.45;;;;;;;;;;4987541;28;20046;-75
2020/12/31 13:06:40;;;;;;;6.05;4.38;;;;;;;;;;4984579;28;20093;-72
2020/12/31 13:09:07;;;;;;;7.88;3.65;;;;;;;;;;4984636;28;20065;-75
2020/12/31 13:11:33;;;;;;;5.78;3.80;;;;;;;;;;4985310;28;20089;-75
2020/12/31 13:14:02;;;;;;;5.88;4.55;;;;;;;;;;4989625;28;20065;-73
2020/12/31 13:16:28;;;;;;;4.40;4.00;;;;;;;;;;4987497;28;20105;-72
2020/12/31 13:18:54;;;;;;;6.63;4.35;;;;;;;;;;4984959;28;20109;-73
2020/12/31 13:21:21;;;;;;;5.53;3.65;;;;;;;;;;4982553;28;20086;-76
2020/12/31 13:23:47;;;;;;;4.78;3.75;;;;;;;;;;4984264;28;20039;-73
2020/12/31 13:26:35;;;;;;;5.68;3.72;;;;;;;;;;4982480;28;20054;-76
2020/12/31 13:29:02;;;;;;;4.45;3.80;;;;;;;;;;4986194;28;20056;-74
2020/12/31 13:31:28;;;;;;;5.93;4.45;;;;;;;;;;5000928;28;20047;-75
2020/12/31 13:35:23;;;;;;;5.07;4.13;;;;;;;;;;4971039;28;20047;-72
2020/12/31 13:37:59;;;;;;;;;;;;;;;;;;;;;
2020/12/31 13:40:50;;;;;;;6.30;4.60;;;;;;;;;;4983384;28;20449;-71
2020/12/31 13:43:16;;;;;;;4.80;3.80;;;;;;;;;;4985539;28;20725;-73
2020/12/31 13:45:42;;;;;;;4.88;3.83;;;;;;;;;;4981741;28;20509;-73
2020/12/31 13:48:09;;;;;;;5.00;4.28;;;;;;;;;;4987113;28;20050;-73
2020/12/31 13:51:13;;;;;;;4.72;3.97;;;;;;;;;;4986920;28;20424;-73
2020/12/31 13:53:39;;;;;;;5.68;4.20;;;;;;;;;;4988060;28;20057;-71
2020/12/31 13:56:06;;;;;;;5.95;3.75;;;;;;;;;;4987366;28;20134;-73
2020/12/31 13:58:32;;;;;;;4.25;3.78;;;;;;;;;;4987795;28;20101;-72
2020/12/31 14:01:18;;;;;;;5.82;3.50;;;;;;;;;;4988515;28;20058;-72
2020/12/31 14:03:45;;;;;;;4.95;3.60;;;;;;;;;;4987631;28;20096;-71
2020/12/31 14:06:24;;;;;;;3.55;3.25;;;;;;;;;;4988247;28;20520;-70
2020/12/31 14:08:50;;;;;;;5.88;3.95;;;;;;;;;;4988174;28;20050;-69
2020/12/31 14:11:16;;;;;;;4.85;3.63;;;;;;;;;;4989084;28;20100;-71
2020/12/31 14:13:42;;;;;;;5.03;3.70;;;;;;;;;;4986297;28;20128;-69
2020/12/31 14:16:08;;;;;;;6.50;3.65;;;;;;;;;;4987479;28;20050;-71
2020/12/31 14:18:34;;;;;;;4.13;3.33;;;;;;;;;;4985898;28;20050;-71
2020/12/31 14:21:00;;;;;;;5.30;3.25;;;;;;;;;;4987677;28;20058;-70
2020/12/31 14:23:26;;;;;;;4.93;3.75;;;;;;;;;;4984021;28;20050;-71
2020/12/31 14:25:52;;;;;;;4.93;3.75;;;;;;;;;;4985903;28;20085;-71
2020/12/31 14:28:18;;;;;;;4.63;3.08;;;;;;;;;;4986317;28;20051;-70
2020/12/31 14:30:46;;;;;;;4.78;3.33;;;;;;;;;;4988061;28;20050;-69
2020/12/31 14:33:12;;;;;;;4.20;3.17;;;;;;;;;;4982871;28;20051;-71
2020/12/31 14:35:38;;;;;;;4.20;3.63;;;;;;;;;;4980048;28;20086;-72
2020/12/31 14:38:04;;;;;;;6.35;3.83;;;;;;;;;;4982784;28;20110;-71
2020/12/31 14:40:31;;;;;;;3.13;2.72;;;;;;;;;;4981377;28;20046;-71
2020/12/31 14:42:57;;;;;;;3.78;3.33;;;;;;;;;;4982829;28;20200;-71
2020/12/31 14:45:23;;;;;;;4.32;3.40;;;;;;;;;;4981117;28;20042;-71
2020/12/31 14:47:54;;;;;;;5.57;3.03;;;;;;;;;;4982054;28;20133;-70
2020/12/31 14:50:21;;;;;;;7.15;3.38;;;;;;;;;;4966598;28;20074;-70
2020/12/31 14:52:48;;;;;;;4.72;3.78;;;;;;;;;;4981505;28;20108;-70